Time;durP1;ratioP1;P1;durP2;ratioP2;P2;SDS_P1;SDS_P2;PMS_P1;PMS_P2;Temp;Humidity;BMP_temperature;BMP_pressure;BME280_temperature;BME280_humidity;BME280_pressure;Samples;Min_cycle;Max_cycle;Signal;HPM_P1;HPM_P2
2022/10/16 00:01:48;;;;;;;8.18;4.90;;;;;;;;;;1751518;81;22160;-73
2022/10/16 00:04:14;;;;;;;9.10;4.95;;;;;;;;;;1740521;82;21040;-73
2022/10/16 00:06:41;;;;;;;7.62;4.47;;;;;;;;;;1740884;82;21045;-73
2022/10/16 00:09:08;;;;;;;7.08;4.37;;;;;;;;;;1751374;82;21012;-73
2022/10/16 00:11:36;;;;;;;8.63;4.35;;;;;;;;;;1752139;82;20992;-73
2022/10/16 00:14:04;;;;;;;9.63;4.72;;;;;;;;;;1752151;82;20993;-73
2022/10/16 00:16:30;;;;;;;7.17;4.35;;;;;;;;;;1740329;81;21052;-73
2022/10/16 00:18:56;;;;;;;8.28;4.65;;;;;;;;;;1738919;82;21005;-73
2022/10/16 00:21:23;;;;;;;7.97;4.83;;;;;;;;;;1737481;82;20990;-72
2022/10/16 00:23:53;;;;;;;6.92;4.53;;;;;;;;;;1736451;82;20965;-73
2022/10/16 00:26:19;;;;;;;8.35;4.78;;;;;;;;;;1726797;82;21027;-73
2022/10/16 00:30:23;;;;;;;6.67;4.15;;;;;;;;;;1810681;78;22894;-73
2022/10/16 00:32:49;;;;;;;6.35;4.40;;;;;;;;;;1782792;79;20964;-73
2022/10/16 00:35:16;;;;;;;6.55;4.33;;;;;;;;;;1764944;80;21043;-73
2022/10/16 00:37:41;;;;;;;9.98;5.28;;;;;;;;;;1779089;80;20950;-73
2022/10/16 00:40:08;;;;;;;7.28;4.60;;;;;;;;;;1786543;79;20970;-73
2022/10/16 00:42:35;;;;;;;6.70;4.53;;;;;;;;;;1787998;79;21036;-73
2022/10/16 00:45:01;;;;;;;8.15;5.22;;;;;;;;;;1762816;80;20941;-73
2022/10/16 00:47:33;;;;;;;8.40;4.92;;;;;;;;;;1762970;80;21036;-73
2022/10/16 00:50:00;;;;;;;8.45;4.72;;;;;;;;;;1779313;79;21063;-74
2022/10/16 00:52:27;;;;;;;7.55;5.03;;;;;;;;;;1783914;79;21571;-74
2022/10/16 00:54:53;;;;;;;8.40;4.85;;;;;;;;;;1786800;79;20969;-73
2022/10/16 00:57:19;;;;;;;7.00;4.62;;;;;;;;;;1785302;79;21037;-74
2022/10/16 00:59:45;;;;;;;7.17;4.65;;;;;;;;;;1770620;79;21075;-73
2022/10/16 01:02:12;;;;;;;7.58;4.78;;;;;;;;;;1746095;81;20982;-73
2022/10/16 01:04:42;;;;;;;8.43;4.60;;;;;;;;;;1739453;81;21531;-74
2022/10/16 01:07:16;;;;;;;7.85;4.40;;;;;;;;;;1732966;81;21083;-73
2022/10/16 01:09:44;;;;;;;7.65;4.58;;;;;;;;;;1743881;81;21083;-73
2022/10/16 01:12:12;;;;;;;7.78;4.78;;;;;;;;;;1738858;81;21063;-73
2022/10/16 01:14:55;;;;;;;7.25;4.97;;;;;;;;;;1747310;81;21008;-73
2022/10/16 01:17:40;;;;;;;8.93;4.70;;;;;;;;;;1743916;81;21480;-73
2022/10/16 01:20:08;;;;;;;8.00;5.05;;;;;;;;;;1743285;81;21519;-73
2022/10/16 01:22:53;;;;;;;8.05;4.90;;;;;;;;;;1754980;81;21563;-72
2022/10/16 01:25:21;;;;;;;6.90;5.00;;;;;;;;;;1734063;81;21020;-73
2022/10/16 01:27:47;;;;;;;7.42;5.03;;;;;;;;;;1737046;81;21048;-76
2022/10/16 01:30:15;;;;;;;8.28;4.90;;;;;;;;;;1749185;81;21021;-74
2022/10/16 01:32:52;;;;;;;7.72;4.80;;;;;;;;;;1729058;82;21061;-74
2022/10/16 01:35:26;;;;;;;8.80;4.75;;;;;;;;;;1736319;82;21073;-75
2022/10/16 01:37:54;;;;;;;8.70;4.87;;;;;;;;;;1737418;82;21005;-74
2022/10/16 01:40:20;;;;;;;8.95;4.78;;;;;;;;;;1737321;82;21048;-73
2022/10/16 01:42:47;;;;;;;8.28;4.70;;;;;;;;;;1749188;82;21068;-74
2022/10/16 01:45:13;;;;;;;6.83;4.55;;;;;;;;;;1730357;82;21036;-76
2022/10/16 01:47:40;;;;;;;9.88;5.62;;;;;;;;;;1729344;82;21005;-73
2022/10/16 01:50:06;;;;;;;10.45;5.47;;;;;;;;;;1739875;82;21505;-73
2022/10/16 01:52:35;;;;;;;10.50;5.67;;;;;;;;;;1749537;82;21430;-72
2022/10/16 01:55:02;;;;;;;11.45;5.70;;;;;;;;;;1729378;82;21047;-73
2022/10/16 01:57:28;;;;;;;9.00;4.92;;;;;;;;;;1747588;82;21053;-73
2022/10/16 01:59:56;;;;;;;9.30;5.75;;;;;;;;;;1739378;82;21635;-73
2022/10/16 02:05:23;;;;;;;10.38;5.42;;;;;;;;;;1688816;82;21463;-73
2022/10/16 02:07:51;;;;;;;8.38;5.12;;;;;;;;;;1682992;85;21042;-73
2022/10/16 02:10:17;;;;;;;9.20;5.25;;;;;;;;;;1654614;86;21085;-73
2022/10/16 02:12:45;;;;;;;7.78;5.10;;;;;;;;;;1687895;83;20998;-73
2022/10/16 02:15:11;;;;;;;8.85;4.75;;;;;;;;;;1705959;83;21001;-73
2022/10/16 02:17:38;;;;;;;8.03;5.17;;;;;;;;;;1698551;84;21603;-73
2022/10/16 02:20:05;;;;;;;8.15;4.67;;;;;;;;;;1664572;85;21049;-73
2022/10/16 02:22:33;;;;;;;9.75;5.17;;;;;;;;;;1676591;83;21108;-74
2022/10/16 02:25:01;;;;;;;7.92;5.20;;;;;;;;;;1689462;84;21030;-74
2022/10/16 02:27:35;;;;;;;11.18;5.50;;;;;;;;;;1706401;84;21096;-74
2022/10/16 02:30:09;;;;;;;10.08;4.97;;;;;;;;;;1698596;83;22164;-74
2022/10/16 02:32:36;;;;;;;13.35;5.25;;;;;;;;;;1701419;83;21077;-74
2022/10/16 02:35:03;;;;;;;9.63;4.55;;;;;;;;;;1681286;84;21099;-74
2022/10/16 02:37:30;;;;;;;8.18;4.47;;;;;;;;;;1664686;86;21057;-74
2022/10/16 02:39:56;;;;;;;9.20;4.83;;;;;;;;;;1688747;83;22079;-74
2022/10/16 02:42:24;;;;;;;8.55;4.85;;;;;;;;;;1695816;83;21013;-74
2022/10/16 02:44:51;;;;;;;7.75;4.80;;;;;;;;;;1705784;84;21077;-74
2022/10/16 02:47:17;;;;;;;9.40;4.45;;;;;;;;;;1686004;84;21546;-74
2022/10/16 02:49:44;;;;;;;9.15;4.45;;;;;;;;;;1704109;84;21068;-74
2022/10/16 02:52:10;;;;;;;7.83;4.62;;;;;;;;;;1706540;84;21079;-74
2022/10/16 02:54:36;;;;;;;9.78;4.78;;;;;;;;;;1706423;84;21596;-74
2022/10/16 02:57:02;;;;;;;9.00;5.25;;;;;;;;;;1706486;84;21068;-74
2022/10/16 02:59:28;;;;;;;9.23;5.08;;;;;;;;;;1688888;83;20990;-75
2022/10/16 03:01:55;;;;;;;11.85;4.78;;;;;;;;;;1680294;84;21026;-74
2022/10/16 03:04:23;;;;;;;10.32;4.80;;;;;;;;;;1660393;85;21061;-73
2022/10/16 03:06:49;;;;;;;10.88;4.78;;;;;;;;;;1623502;87;21068;-74
2022/10/16 03:09:16;;;;;;;8.48;4.87;;;;;;;;;;1623299;87;21134;-74
2022/10/16 03:11:43;;;;;;;7.67;4.67;;;;;;;;;;1610785;87;21091;-73
2022/10/16 03:14:11;;;;;;;8.20;4.22;;;;;;;;;;1623554;86;21064;-72
2022/10/16 03:16:37;;;;;;;8.75;4.92;;;;;;;;;;1624538;87;20978;-72
2022/10/16 03:19:04;;;;;;;8.48;5.00;;;;;;;;;;1622642;87;21105;-72
2022/10/16 03:21:31;;;;;;;8.93;4.92;;;;;;;;;;1623942;87;21033;-73
2022/10/16 03:23:58;;;;;;;9.40;5.25;;;;;;;;;;1620429;87;21064;-74
2022/10/16 03:26:24;;;;;;;8.95;4.92;;;;;;;;;;1622595;88;21033;-75
2022/10/16 03:28:50;;;;;;;8.23;4.92;;;;;;;;;;1622347;88;21032;-75
2022/10/16 03:31:16;;;;;;;10.65;5.12;;;;;;;;;;1622866;86;21049;-75
2022/10/16 03:33:42;;;;;;;8.38;4.87;;;;;;;;;;1623127;87;21037;-74
2022/10/16 03:36:08;;;;;;;7.83;4.75;;;;;;;;;;1623075;87;21568;-75
2022/10/16 03:38:34;;;;;;;8.98;4.53;;;;;;;;;;1623602;87;21029;-74
2022/10/16 03:41:00;;;;;;;11.85;5.78;;;;;;;;;;1619290;86;21803;-75
2022/10/16 03:43:26;;;;;;;13.25;4.85;;;;;;;;;;1623388;87;21029;-79
2022/10/16 03:45:52;;;;;;;7.97;5.10;;;;;;;;;;1623552;87;21064;-74
2022/10/16 03:48:19;;;;;;;8.58;5.08;;;;;;;;;;1624449;87;21113;-73
2022/10/16 03:50:46;;;;;;;9.93;5.25;;;;;;;;;;1622821;86;21037;-72
2022/10/16 03:53:12;;;;;;;8.30;4.65;;;;;;;;;;1623984;88;21048;-71
2022/10/16 03:55:38;;;;;;;9.48;4.83;;;;;;;;;;1627878;86;21556;-74
2022/10/16 03:58:05;;;;;;;8.53;4.65;;;;;;;;;;1648413;87;21046;-74
2022/10/16 04:00:32;;;;;;;8.95;5.17;;;;;;;;;;1634780;86;21587;-73
2022/10/16 04:02:58;;;;;;;7.03;4.55;;;;;;;;;;1620906;87;21118;-72
2022/10/16 04:05:24;;;;;;;6.72;4.67;;;;;;;;;;1640137;87;21196;-71
2022/10/16 04:07:52;;;;;;;9.13;4.92;;;;;;;;;;1652322;87;21613;-72
2022/10/16 04:10:19;;;;;;;7.05;4.33;;;;;;;;;;1655900;85;21122;-72
2022/10/16 04:12:45;;;;;;;8.18;4.30;;;;;;;;;;1658495;86;21017;-72
2022/10/16 04:15:11;;;;;;;8.08;5.20;;;;;;;;;;1657996;85;21060;-73
2022/10/16 04:17:37;;;;;;;8.20;4.67;;;;;;;;;;1652560;86;22236;-72
2022/10/16 04:20:05;;;;;;;8.83;4.58;;;;;;;;;;1655791;85;21069;-72
2022/10/16 04:22:31;;;;;;;6.97;4.58;;;;;;;;;;1645567;85;21011;-72
2022/10/16 04:24:58;;;;;;;7.92;5.00;;;;;;;;;;1652735;85;21049;-72
2022/10/16 04:27:25;;;;;;;7.65;4.58;;;;;;;;;;1658240;85;21103;-72
2022/10/16 04:29:51;;;;;;;14.40;9.55;;;;;;;;;;1650423;86;21039;-74
2022/10/16 04:32:18;;;;;;;16.20;8.83;;;;;;;;;;1654240;85;21146;-73
2022/10/16 04:34:44;;;;;;;17.30;10.63;;;;;;;;;;1657295;85;21105;-72
2022/10/16 04:37:10;;;;;;;8.35;5.28;;;;;;;;;;1652606;85;21041;-73
2022/10/16 04:39:37;;;;;;;8.00;5.20;;;;;;;;;;1649637;85;20998;-73
2022/10/16 04:42:04;;;;;;;8.78;5.28;;;;;;;;;;1595492;89;21066;-74
2022/10/16 04:44:30;;;;;;;8.93;5.17;;;;;;;;;;1591928;89;21082;-73
2022/10/16 04:46:58;;;;;;;7.87;4.87;;;;;;;;;;1622095;88;21575;-74
2022/10/16 04:49:24;;;;;;;8.30;5.20;;;;;;;;;;1622146;88;21048;-74
2022/10/16 04:51:50;;;;;;;7.40;4.47;;;;;;;;;;1621330;88;21028;-72
2022/10/16 04:54:16;;;;;;;9.98;4.50;;;;;;;;;;1622456;87;21084;-74
2022/10/16 04:56:50;;;;;;;9.28;4.80;;;;;;;;;;1618708;88;22535;-74
2022/10/16 04:59:17;;;;;;;8.38;4.42;;;;;;;;;;1652365;86;21084;-74
2022/10/16 05:01:43;;;;;;;7.92;4.80;;;;;;;;;;1656317;85;21010;-72
2022/10/16 05:04:09;;;;;;;7.62;4.45;;;;;;;;;;1656931;85;21104;-74
2022/10/16 05:06:35;;;;;;;7.85;4.85;;;;;;;;;;1668509;84;21046;-74
2022/10/16 05:09:02;;;;;;;7.28;4.42;;;;;;;;;;1662835;84;21121;-74
2022/10/16 05:11:29;;;;;;;8.03;4.87;;;;;;;;;;1661157;84;21672;-73
2022/10/16 05:13:55;;;;;;;9.78;4.90;;;;;;;;;;1656039;86;21588;-73
2022/10/16 05:16:21;;;;;;;8.70;4.40;;;;;;;;;;1680254;85;21081;-73
2022/10/16 05:18:48;;;;;;;7.08;4.70;;;;;;;;;;1669038;84;21034;-73
2022/10/16 05:21:15;;;;;;;7.42;4.50;;;;;;;;;;1665637;84;21001;-72
2022/10/16 05:23:41;;;;;;;8.30;4.50;;;;;;;;;;1658921;84;21058;-72
2022/10/16 05:26:07;;;;;;;12.68;5.03;;;;;;;;;;1665656;84;20967;-77
2022/10/16 05:28:33;;;;;;;6.78;4.70;;;;;;;;;;1679643;85;21463;-74
2022/10/16 05:31:05;;;;;;;7.97;4.75;;;;;;;;;;1682995;85;21067;-75
2022/10/16 05:33:31;;;;;;;9.58;5.15;;;;;;;;;;1684612;84;21006;-76
2022/10/16 05:35:59;;;;;;;29.20;17.05;;;;;;;;;;1665598;84;21490;-77
2022/10/16 05:38:25;;;;;;;13.32;8.23;;;;;;;;;;1652939;85;20986;-75
2022/10/16 05:40:52;;;;;;;11.33;7.15;;;;;;;;;;1680196;85;22170;-75
2022/10/16 05:43:18;;;;;;;13.35;5.12;;;;;;;;;;1665056;84;21533;-75
2022/10/16 05:45:47;;;;;;;8.63;4.85;;;;;;;;;;1673052;84;21043;-76
2022/10/16 05:48:13;;;;;;;8.25;4.83;;;;;;;;;;1658331;84;21053;-76
2022/10/16 05:50:40;;;;;;;8.30;4.87;;;;;;;;;;1654587;86;21114;-76
2022/10/16 05:53:06;;;;;;;7.47;4.65;;;;;;;;;;1664030;85;21021;-76
2022/10/16 05:55:32;;;;;;;8.90;4.75;;;;;;;;;;1676742;85;21106;-74
2022/10/16 05:57:58;;;;;;;9.30;5.42;;;;;;;;;;1669204;84;21045;-77
2022/10/16 06:00:24;;;;;;;9.83;4.67;;;;;;;;;;1668166;84;21540;-74
2022/10/16 06:02:53;;;;;;;7.53;4.25;;;;;;;;;;1635403;86;21965;-75
2022/10/16 06:05:19;;;;;;;8.93;4.47;;;;;;;;;;1632667;86;21392;-74
2022/10/16 06:07:46;;;;;;;7.58;4.50;;;;;;;;;;1609298;88;21085;-75
2022/10/16 06:10:12;;;;;;;9.10;3.95;;;;;;;;;;1637909;86;21481;-74
2022/10/16 06:12:38;;;;;;;12.93;4.28;;;;;;;;;;1636866;86;21580;-75
2022/10/16 06:15:05;;;;;;;6.70;4.10;;;;;;;;;;1635426;86;21026;-76
2022/10/16 06:17:32;;;;;;;7.37;4.42;;;;;;;;;;1633598;86;21601;-76
2022/10/16 06:19:59;;;;;;;8.63;4.20;;;;;;;;;;1632521;86;21057;-76
2022/10/16 06:22:27;;;;;;;13.43;4.70;;;;;;;;;;1634311;85;22405;-77
2022/10/16 06:24:53;;;;;;;6.75;4.30;;;;;;;;;;1658020;84;22153;-77
2022/10/16 06:27:19;;;;;;;7.53;4.30;;;;;;;;;;1656418;84;21476;-77
2022/10/16 06:29:45;;;;;;;8.30;4.75;;;;;;;;;;1659074;84;21033;-76
2022/10/16 06:32:11;;;;;;;8.25;4.47;;;;;;;;;;1666768;84;21077;-77
2022/10/16 06:34:39;;;;;;;7.20;4.35;;;;;;;;;;1662094;84;21088;-78
2022/10/16 06:37:05;;;;;;;8.03;4.78;;;;;;;;;;1663475;84;21057;-80
2022/10/16 06:39:32;;;;;;;7.17;4.30;;;;;;;;;;1659153;84;21044;-79
2022/10/16 06:41:58;;;;;;;8.83;4.80;;;;;;;;;;1664880;84;20999;-81
2022/10/16 06:44:26;;;;;;;6.72;4.03;;;;;;;;;;1661423;84;21101;-78
2022/10/16 06:46:52;;;;;;;8.03;4.45;;;;;;;;;;1637024;86;21096;-75
2022/10/16 06:49:22;;;;;;;8.75;4.85;;;;;;;;;;1640863;86;21572;-76
2022/10/16 06:51:46;;;;;;;8.80;4.25;;;;;;;;;;1605864;87;21116;-76
2022/10/16 06:54:12;;;;;;;8.18;5.12;;;;;;;;;;1618325;86;21132;-75
2022/10/16 06:56:39;;;;;;;18.00;5.78;;;;;;;;;;1620577;86;21044;-75
2022/10/16 06:59:05;;;;;;;11.28;5.47;;;;;;;;;;1661805;84;21085;-76
2022/10/16 07:01:31;;;;;;;10.80;5.75;;;;;;;;;;1661077;84;21041;-77
2022/10/16 07:03:57;;;;;;;9.68;5.55;;;;;;;;;;1670630;84;21779;-76
2022/10/16 07:06:24;;;;;;;10.45;5.50;;;;;;;;;;1655873;85;21536;-77
2022/10/16 07:08:50;;;;;;;7.83;4.83;;;;;;;;;;1653933;85;21642;-76
2022/10/16 07:11:18;;;;;;;11.95;5.90;;;;;;;;;;1654138;85;21041;-77
2022/10/16 07:13:45;;;;;;;12.23;5.97;;;;;;;;;;1659107;84;21033;-77
2022/10/16 07:16:15;;;;;;;15.65;6.97;;;;;;;;;;1650666;84;21128;-76
2022/10/16 07:18:45;;;;;;;18.30;10.55;;;;;;;;;;1658673;85;21435;-74
2022/10/16 07:21:13;;;;;;;14.47;7.80;;;;;;;;;;1659851;85;21023;-75
2022/10/16 07:23:40;;;;;;;11.65;6.72;;;;;;;;;;1659006;84;21125;-75
2022/10/16 07:26:07;;;;;;;12.35;6.17;;;;;;;;;;1659736;85;21111;-75
2022/10/16 07:28:33;;;;;;;8.40;5.30;;;;;;;;;;1637495;85;21083;-74
2022/10/16 07:31:00;;;;;;;8.98;4.87;;;;;;;;;;1656033;85;21034;-74
2022/10/16 07:33:26;;;;;;;9.60;4.70;;;;;;;;;;1655485;84;21046;-74
2022/10/16 07:35:53;;;;;;;9.50;4.80;;;;;;;;;;1651302;85;21085;-74
2022/10/16 07:38:19;;;;;;;7.03;4.25;;;;;;;;;;1657814;85;21041;-75
2022/10/16 07:40:45;;;;;;;7.35;4.62;;;;;;;;;;1655527;85;21061;-73
2022/10/16 07:43:11;;;;;;;9.93;5.15;;;;;;;;;;1665583;84;21001;-72
2022/10/16 07:45:37;;;;;;;7.92;4.72;;;;;;;;;;1655903;84;21025;-74
2022/10/16 07:48:04;;;;;;;9.15;6.15;;;;;;;;;;1658877;85;21505;-74
2022/10/16 07:50:31;;;;;;;8.08;4.35;;;;;;;;;;1657535;85;21070;-74
2022/10/16 07:52:57;;;;;;;7.53;4.30;;;;;;;;;;1600896;87;21124;-75
2022/10/16 07:55:23;;;;;;;9.20;4.87;;;;;;;;;;1608187;88;21118;-75
2022/10/16 07:57:51;;;;;;;11.85;5.33;;;;;;;;;;1612156;88;21070;-75
2022/10/16 08:00:17;;;;;;;14.03;5.70;;;;;;;;;;1612189;88;21015;-75
2022/10/16 08:02:43;;;;;;;10.70;5.35;;;;;;;;;;1608322;87;21153;-75
2022/10/16 08:05:10;;;;;;;8.68;5.08;;;;;;;;;;1625546;86;21033;-74
2022/10/16 08:07:37;;;;;;;6.62;3.83;;;;;;;;;;1593641;87;21087;-74
2022/10/16 08:10:05;;;;;;;8.40;4.47;;;;;;;;;;1660767;84;22155;-73
2022/10/16 08:12:33;;;;;;;7.53;3.95;;;;;;;;;;1661049;84;21457;-74
2022/10/16 08:15:00;;;;;;;8.60;4.25;;;;;;;;;;1658038;85;21038;-75
2022/10/16 08:17:25;;;;;;;7.40;4.62;;;;;;;;;;1659402;85;21570;-75
2022/10/16 08:19:52;;;;;;;6.15;3.77;;;;;;;;;;1660120;85;21010;-75
2022/10/16 08:22:18;;;;;;;6.78;4.00;;;;;;;;;;1655043;84;21066;-74
2022/10/16 08:24:44;;;;;;;7.00;4.80;;;;;;;;;;1657878;84;21012;-75
2022/10/16 08:27:11;;;;;;;7.22;4.12;;;;;;;;;;1657747;85;21073;-76
2022/10/16 08:29:38;;;;;;;8.68;4.40;;;;;;;;;;1656905;85;21109;-74
2022/10/16 08:32:04;;;;;;;9.20;5.40;;;;;;;;;;1655260;85;21089;-75
2022/10/16 08:34:31;;;;;;;11.28;4.87;;;;;;;;;;1650695;85;21560;-75
2022/10/16 08:36:57;;;;;;;9.33;4.80;;;;;;;;;;1643855;87;20965;-75
2022/10/16 08:39:24;;;;;;;7.30;4.33;;;;;;;;;;1643719;85;21060;-75
2022/10/16 08:42:00;;;;;;;15.80;5.17;;;;;;;;;;1667597;84;21049;-72
2022/10/16 08:44:47;;;;;;;6.12;4.37;;;;;;;;;;1661760;84;21549;-72
2022/10/16 08:47:14;;;;;;;11.53;4.85;;;;;;;;;;1675594;84;21557;-71
2022/10/16 08:49:41;;;;;;;7.55;4.25;;;;;;;;;;1684264;84;21113;-72
2022/10/16 08:52:11;;;;;;;6.15;3.77;;;;;;;;;;1685872;84;21061;-70
2022/10/16 08:54:42;;;;;;;11.25;4.00;;;;;;;;;;1673455;84;21093;-70
2022/10/16 08:57:13;;;;;;;6.10;4.03;;;;;;;;;;1671941;84;21046;-71
2022/10/16 08:59:39;;;;;;;7.75;3.75;;;;;;;;;;1675797;84;21006;-71
2022/10/16 09:02:13;;;;;;;6.40;3.50;;;;;;;;;;1687096;84;21537;-71
2022/10/16 09:04:51;;;;;;;11.38;4.25;;;;;;;;;;1614339;87;22208;-71
2022/10/16 09:07:24;;;;;;;7.65;4.00;;;;;;;;;;1612344;87;21114;-72
2022/10/16 09:09:56;;;;;;;11.10;4.30;;;;;;;;;;1674223;84;20998;-71
2022/10/16 09:12:30;;;;;;;8.50;4.28;;;;;;;;;;1691799;84;21021;-71
2022/10/16 09:14:58;;;;;;;6.78;3.50;;;;;;;;;;1652679;84;21609;-70
2022/10/16 09:17:44;;;;;;;5.22;2.90;;;;;;;;;;1658542;85;21628;-71
2022/10/16 09:20:18;;;;;;;10.10;3.62;;;;;;;;;;1647600;86;21058;-71
2022/10/16 09:22:44;;;;;;;7.28;4.17;;;;;;;;;;1664532;85;21662;-73
2022/10/16 09:25:12;;;;;;;6.10;3.70;;;;;;;;;;1672823;85;21010;-71
2022/10/16 09:27:38;;;;;;;14.33;3.67;;;;;;;;;;1668705;85;21044;-71
2022/10/16 09:30:11;;;;;;;7.10;3.92;;;;;;;;;;1671423;85;21041;-69
2022/10/16 09:32:38;;;;;;;6.35;3.45;;;;;;;;;;1671782;85;21573;-69
2022/10/16 09:35:04;;;;;;;8.68;4.10;;;;;;;;;;1658856;84;21121;-69
2022/10/16 09:37:32;;;;;;;8.20;3.92;;;;;;;;;;1678675;85;21051;-69
2022/10/16 09:39:58;;;;;;;6.75;3.77;;;;;;;;;;1680004;85;22342;-69
2022/10/16 09:42:26;;;;;;;8.63;3.77;;;;;;;;;;1670534;85;21089;-69
2022/10/16 09:44:53;;;;;;;6.67;3.98;;;;;;;;;;1672271;84;21714;-70
2022/10/16 09:47:22;;;;;;;10.35;4.37;;;;;;;;;;1674594;84;21034;-71
2022/10/16 09:49:53;;;;;;;7.22;3.67;;;;;;;;;;1670114;84;21030;-72
2022/10/16 09:52:19;;;;;;;15.55;4.60;;;;;;;;;;1673098;84;21070;-72
2022/10/16 09:54:51;;;;;;;6.17;2.75;;;;;;;;;;1648270;87;21593;-71
2022/10/16 09:57:17;;;;;;;6.97;4.47;;;;;;;;;;1690258;84;21018;-71
2022/10/16 09:59:49;;;;;;;6.83;3.72;;;;;;;;;;1673193;84;21086;-71
2022/10/16 10:02:16;;;;;;;7.70;3.87;;;;;;;;;;1680461;84;21101;-70
2022/10/16 10:04:45;;;;;;;6.95;3.52;;;;;;;;;;1671850;85;21042;-70
2022/10/16 10:07:21;;;;;;;6.22;3.47;;;;;;;;;;1683650;84;21584;-71
2022/10/16 10:09:48;;;;;;;6.37;3.50;;;;;;;;;;1680590;84;21073;-70
2022/10/16 10:12:25;;;;;;;4.85;3.47;;;;;;;;;;1670656;84;21106;-72
2022/10/16 10:14:53;;;;;;;7.75;3.60;;;;;;;;;;1685488;85;21128;-71
2022/10/16 10:17:20;;;;;;;5.28;3.52;;;;;;;;;;1626356;88;21069;-70
2022/10/16 10:19:51;;;;;;;7.65;3.98;;;;;;;;;;1642020;86;21526;-70
2022/10/16 10:22:19;;;;;;;6.33;3.30;;;;;;;;;;1634158;86;21647;-71
2022/10/16 10:24:46;;;;;;;6.92;4.20;;;;;;;;;;1687259;84;21528;-70
2022/10/16 10:27:14;;;;;;;7.37;3.12;;;;;;;;;;1678342;84;21548;-70
2022/10/16 10:29:42;;;;;;;6.60;3.95;;;;;;;;;;1675794;84;21026;-71
2022/10/16 10:32:29;;;;;;;6.20;3.35;;;;;;;;;;1673258;84;21054;-71
2022/10/16 10:35:03;;;;;;;6.92;3.35;;;;;;;;;;1684982;84;21041;-71
2022/10/16 10:37:38;;;;;;;7.62;3.52;;;;;;;;;;1670606;85;21104;-72
2022/10/16 10:40:15;;;;;;;25.40;4.40;;;;;;;;;;1673517;84;21045;-71
2022/10/16 10:42:46;;;;;;;5.20;3.02;;;;;;;;;;1678683;84;21537;-73
2022/10/16 10:45:20;;;;;;;6.58;2.75;;;;;;;;;;1671007;84;21068;-74
2022/10/16 10:48:07;;;;;;;5.50;3.20;;;;;;;;;;1663417;84;21053;-75
2022/10/16 10:50:42;;;;;;;6.15;3.33;;;;;;;;;;1662872;84;21097;-76
2022/10/16 10:53:10;;;;;;;3.90;2.40;;;;;;;;;;1676801;84;21521;-76
2022/10/16 10:55:41;;;;;;;5.65;3.00;;;;;;;;;;1674175;85;21056;-76
2022/10/16 10:58:09;;;;;;;5.30;2.95;;;;;;;;;;1655421;85;21043;-75
2022/10/16 11:00:54;;;;;;;5.75;3.00;;;;;;;;;;1591984;89;21193;-74
2022/10/16 11:03:38;;;;;;;5.30;2.62;;;;;;;;;;1655177;87;21084;-74
2022/10/16 11:06:05;;;;;;;6.22;2.70;;;;;;;;;;1669635;85;21529;-71
2022/10/16 11:08:42;;;;;;;5.62;2.67;;;;;;;;;;1666367;85;21019;-73
2022/10/16 11:11:28;;;;;;;3.70;2.35;;;;;;;;;;1663726;84;21615;-74
2022/10/16 11:14:00;;;;;;;7.90;3.08;;;;;;;;;;1670206;84;21048;-72
2022/10/16 11:16:30;;;;;;;4.08;2.47;;;;;;;;;;1661057;84;21065;-74
2022/10/16 11:19:01;;;;;;;5.87;2.80;;;;;;;;;;1662549;84;21877;-74
2022/10/16 11:21:28;;;;;;;5.22;2.80;;;;;;;;;;1603026;85;21003;-74
2022/10/16 11:23:58;;;;;;;5.90;2.77;;;;;;;;;;1659158;84;21598;-73
2022/10/16 11:26:26;;;;;;;4.62;2.37;;;;;;;;;;1657754;84;21042;-74
2022/10/16 11:28:54;;;;;;;9.30;2.80;;;;;;;;;;1627375;86;21038;-72
2022/10/16 11:31:38;;;;;;;19.62;4.92;;;;;;;;;;1628497;87;21137;-72
2022/10/16 11:34:16;;;;;;;5.87;3.10;;;;;;;;;;1679170;84;20987;-72
2022/10/16 11:37:01;;;;;;;5.95;3.27;;;;;;;;;;1672417;84;21061;-73
2022/10/16 11:39:28;;;;;;;4.75;2.80;;;;;;;;;;1669125;84;21054;-74
2022/10/16 11:41:55;;;;;;;6.53;2.60;;;;;;;;;;1660666;84;21104;-73
2022/10/16 11:44:40;;;;;;;6.20;3.10;;;;;;;;;;1661945;84;21553;-73
2022/10/16 11:47:08;;;;;;;4.10;2.50;;;;;;;;;;1670084;84;21625;-73
2022/10/16 11:49:35;;;;;;;5.22;2.95;;;;;;;;;;1657028;84;21112;-73
2022/10/16 11:52:05;;;;;;;5.53;2.60;;;;;;;;;;1668613;84;21087;-73
2022/10/16 11:54:45;;;;;;;9.58;3.90;;;;;;;;;;1658208;84;21738;-73
2022/10/16 11:57:13;;;;;;;8.23;5.53;;;;;;;;;;1658504;85;21613;-74
2022/10/16 11:59:41;;;;;;;4.67;3.20;;;;;;;;;;1653568;85;21098;-73
2022/10/16 12:02:26;;;;;;;6.08;2.60;;;;;;;;;;1666743;84;21064;-73
2022/10/16 12:04:56;;;;;;;4.90;2.70;;;;;;;;;;1666212;84;21076;-73
2022/10/16 12:07:23;;;;;;;4.08;2.62;;;;;;;;;;1669903;84;21599;-72
2022/10/16 12:09:51;;;;;;;4.95;3.10;;;;;;;;;;1656629;84;21173;-74
2022/10/16 12:12:24;;;;;;;8.55;3.12;;;;;;;;;;1660564;84;21097;-74
2022/10/16 12:14:51;;;;;;;5.20;3.08;;;;;;;;;;1661525;84;20991;-72
2022/10/16 12:17:22;;;;;;;4.97;2.85;;;;;;;;;;1664649;84;21067;-72
2022/10/16 12:19:57;;;;;;;4.58;3.00;;;;;;;;;;1663079;84;21108;-74
2022/10/16 12:22:25;;;;;;;10.05;3.45;;;;;;;;;;1664618;84;20990;-73
2022/10/16 12:24:51;;;;;;;6.65;3.00;;;;;;;;;;1663440;85;21033;-73
2022/10/16 12:27:30;;;;;;;5.60;3.22;;;;;;;;;;1663975;85;21520;-73
2022/10/16 12:29:59;;;;;;;4.45;2.72;;;;;;;;;;1669373;84;21491;-73
2022/10/16 12:32:33;;;;;;;4.90;2.90;;;;;;;;;;1673455;84;20994;-74
2022/10/16 12:35:00;;;;;;;4.17;2.67;;;;;;;;;;1685003;84;21660;-74
2022/10/16 12:37:27;;;;;;;6.75;2.85;;;;;;;;;;1678646;84;21120;-74
2022/10/16 12:39:54;;;;;;;6.30;3.33;;;;;;;;;;1673139;85;21002;-73
2022/10/16 12:42:29;;;;;;;5.35;3.10;;;;;;;;;;1683748;85;20981;-74
2022/10/16 12:47:33;;;;;;;12.70;4.10;;;;;;;;;;1802682;78;23447;-68
2022/10/16 12:49:59;;;;;;;7.40;3.40;;;;;;;;;;1761024;81;21324;-67
2022/10/16 12:52:30;;;;;;;7.30;3.15;;;;;;;;;;1763397;80;21059;-69
2022/10/16 12:54:59;;;;;;;6.85;4.25;;;;;;;;;;1768628;80;21223;-69
2022/10/16 12:57:28;;;;;;;9.25;5.50;;;;;;;;;;1769833;80;21518;-70
2022/10/16 13:00:06;;;;;;;8.23;4.00;;;;;;;;;;1765992;80;21023;-68
2022/10/16 13:02:51;;;;;;;6.30;3.17;;;;;;;;;;1737750;82;21037;-68
2022/10/16 13:05:19;;;;;;;4.80;3.40;;;;;;;;;;1739188;82;22190;-68
2022/10/16 13:07:50;;;;;;;7.72;3.25;;;;;;;;;;1738641;82;21044;-70
2022/10/16 13:10:34;;;;;;;6.90;3.10;;;;;;;;;;1725029;82;21520;-69
2022/10/16 13:13:22;;;;;;;6.78;2.90;;;;;;;;;;1714972;82;21108;-69
2022/10/16 13:16:07;;;;;;;4.78;3.08;;;;;;;;;;1718315;82;21100;-69
2022/10/16 13:18:35;;;;;;;5.53;3.02;;;;;;;;;;1699525;83;21020;-67
2022/10/16 13:21:04;;;;;;;12.00;3.33;;;;;;;;;;1665710;85;21037;-68
2022/10/16 13:23:33;;;;;;;5.30;2.75;;;;;;;;;;1680248;85;21491;-68
2022/10/16 13:26:07;;;;;;;4.83;3.20;;;;;;;;;;1692258;84;22241;-69
2022/10/16 13:28:34;;;;;;;6.85;4.33;;;;;;;;;;1688133;84;21069;-70
2022/10/16 13:31:01;;;;;;;6.65;3.85;;;;;;;;;;1680049;84;21085;-69
2022/10/16 13:33:33;;;;;;;5.60;3.33;;;;;;;;;;1691840;84;21101;-67
2022/10/16 13:35:59;;;;;;;5.10;3.15;;;;;;;;;;1689212;84;21599;-69
2022/10/16 13:38:26;;;;;;;5.42;3.30;;;;;;;;;;1694657;84;21068;-69
2022/10/16 13:40:55;;;;;;;5.40;3.08;;;;;;;;;;1690763;83;20992;-69
2022/10/16 13:43:22;;;;;;;8.23;3.17;;;;;;;;;;1674140;84;21059;-68
2022/10/16 13:45:56;;;;;;;7.30;3.00;;;;;;;;;;1693207;84;21089;-69
2022/10/16 13:48:22;;;;;;;5.55;3.12;;;;;;;;;;1672110;85;21583;-69
2022/10/16 13:50:50;;;;;;;4.42;3.02;;;;;;;;;;1678361;85;21052;-69
2022/10/16 13:53:16;;;;;;;5.95;3.33;;;;;;;;;;1687192;85;21061;-69
2022/10/16 13:55:43;;;;;;;5.75;3.47;;;;;;;;;;1675788;85;21557;-69
2022/10/16 13:58:13;;;;;;;6.30;3.45;;;;;;;;;;1675171;85;21085;-68
2022/10/16 14:00:40;;;;;;;6.60;3.37;;;;;;;;;;1682919;85;21057;-69
2022/10/16 14:03:10;;;;;;;6.45;3.08;;;;;;;;;;1689983;85;21092;-69
2022/10/16 14:05:47;;;;;;;5.47;3.30;;;;;;;;;;1679065;84;21092;-69
2022/10/16 14:08:14;;;;;;;4.60;3.35;;;;;;;;;;1666014;85;21108;-69
2022/10/16 14:10:40;;;;;;;6.40;3.80;;;;;;;;;;1685573;84;21026;-70
2022/10/16 14:13:06;;;;;;;7.10;4.35;;;;;;;;;;1676801;84;21080;-69
2022/10/16 14:15:33;;;;;;;10.00;3.85;;;;;;;;;;1722777;82;21088;-69
2022/10/16 14:17:59;;;;;;;6.72;3.60;;;;;;;;;;1708354;82;21096;-70
2022/10/16 14:20:29;;;;;;;12.65;7.45;;;;;;;;;;1719002;82;21052;-69
2022/10/16 14:23:01;;;;;;;8.78;5.92;;;;;;;;;;1673170;85;21623;-69
2022/10/16 14:25:28;;;;;;;10.10;6.10;;;;;;;;;;1658897;85;21099;-71
2022/10/16 14:28:01;;;;;;;7.87;3.67;;;;;;;;;;1689417;83;21037;-68
2022/10/16 14:30:27;;;;;;;8.13;3.92;;;;;;;;;;1661060;85;21111;-69
2022/10/16 14:33:00;;;;;;;11.50;4.37;;;;;;;;;;1702476;84;20997;-67
2022/10/16 14:35:28;;;;;;;12.82;4.40;;;;;;;;;;1687845;84;21595;-68
2022/10/16 14:37:55;;;;;;;8.50;4.10;;;;;;;;;;1724883;81;21066;-68
2022/10/16 14:40:22;;;;;;;7.85;4.65;;;;;;;;;;1729123;81;22152;-68
2022/10/16 14:42:48;;;;;;;7.62;4.30;;;;;;;;;;1727604;81;21080;-68
2022/10/16 14:45:16;;;;;;;8.15;4.50;;;;;;;;;;1687770;83;22453;-69
2022/10/16 14:47:57;;;;;;;9.10;4.35;;;;;;;;;;1727204;80;21103;-69
2022/10/16 14:50:23;;;;;;;24.85;5.42;;;;;;;;;;1735788;80;21040;-70
2022/10/16 14:52:49;;;;;;;9.98;3.90;;;;;;;;;;1736270;80;21090;-69
2022/10/16 14:55:16;;;;;;;10.35;3.83;;;;;;;;;;1737073;80;21600;-68
2022/10/16 14:57:42;;;;;;;17.82;4.50;;;;;;;;;;1736397;80;21043;-68